createdAt,value
2022-08-09T00:00:00.466Z,78.70
2022-08-09T00:02:37.257Z,78.80
2022-08-09T00:06:17.348Z,78.50
2022-08-09T00:08:04.139Z,78.70
2022-08-09T00:10:40.723Z,79.10
2022-08-09T00:13:17.019Z,79.30
2022-08-09T00:15:58.814Z,79.60
2022-08-09T00:18:35.629Z,80.30
2022-08-09T00:21:07.855Z,79.90
2022-08-09T00:23:58.162Z,80.10
2022-08-09T00:26:32.145Z,80.40
2022-08-09T00:29:02.135Z,81.50
2022-08-09T00:31:58.578Z,81.60
2022-08-09T00:34:19.360Z,81.80
2022-08-09T00:36:49.946Z,81.80
2022-08-09T00:40:13.967Z,81.80
2022-08-09T00:44:10.259Z,81.80
2022-08-09T00:44:53.750Z,82.20
2022-08-09T00:47:25.003Z,82.00
2022-08-09T00:49:54.875Z,82.60
2022-08-09T00:52:28.163Z,82.60
2022-08-09T00:55:02.269Z,82.40
2022-08-09T00:57:34.511Z,82.50
2022-08-09T01:00:21.825Z,82.70
2022-08-09T01:02:58.248Z,82.80
2022-08-09T01:05:50.951Z,82.90
2022-08-09T01:09:17.627Z,82.70
2022-08-09T01:12:09.120Z,83.20
2022-08-09T01:15:10.083Z,83.00
2022-08-09T01:17:59.545Z,83.50
2022-08-09T01:21:05.631Z,83.20
2022-08-09T01:24:05.030Z,83.60
2022-08-09T01:27:07.872Z,83.10
2022-08-09T01:29:58.020Z,83.40
2022-08-09T01:32:45.286Z,83.10
2022-08-09T01:35:37.792Z,83.20
2022-08-09T01:38:14.936Z,83.10
2022-08-09T01:40:52.456Z,83.10
2022-08-09T01:43:50.233Z,83.50
2022-08-09T01:46:27.495Z,83.50
2022-08-09T01:48:59.625Z,84.30
2022-08-09T01:51:33.075Z,84.00
2022-08-09T01:54:04.049Z,84.10
2022-08-09T01:56:33.920Z,84.20
2022-08-09T01:59:08.296Z,84.20
2022-08-09T02:01:58.070Z,84.70
2022-08-09T02:04:26.392Z,85.10
2022-08-09T02:07:15.524Z,85.10
2022-08-09T02:10:15.358Z,85.10
2022-08-09T02:12:46.028Z,85.40
2022-08-09T02:15:18.226Z,84.80
2022-08-09T02:18:01.601Z,85.00
2022-08-09T02:20:44.248Z,85.40
2022-08-09T02:23:31.999Z,85.70
2022-08-09T02:26:08.187Z,86.40
2022-08-09T02:28:56.350Z,85.60
2022-08-09T02:31:35.544Z,85.60
2022-08-09T02:34:25.827Z,85.90
2022-08-09T02:37:05.725Z,86.00
2022-08-09T02:39:54.918Z,85.80
2022-08-09T02:42:35.043Z,86.70
2022-08-09T02:45:11.744Z,86.30
2022-08-09T02:47:57.559Z,86.30
2022-08-09T02:50:56.155Z,86.10
2022-08-09T02:53:34.921Z,86.50
2022-08-09T02:56:04.543Z,86.20
2022-08-09T02:58:36.639Z,86.10
2022-08-09T03:01:07.733Z,86.10
2022-08-09T03:04:16.727Z,86.00
2022-08-09T03:06:27.639Z,86.00
2022-08-09T03:08:55.596Z,86.10
2022-08-09T03:11:29.917Z,86.10
2022-08-09T03:14:12.938Z,86.50
2022-08-09T03:16:45.273Z,86.70
2022-08-09T03:19:59.683Z,86.40
2022-08-09T03:22:12.473Z,86.50
2022-08-09T03:25:06.371Z,86.60
2022-08-09T03:27:47.566Z,86.70
2022-08-09T03:30:23.635Z,87.00
2022-08-09T03:33:13.036Z,87.00
2022-08-09T03:36:15.933Z,87.00
2022-08-09T03:38:41.982Z,87.10
2022-08-09T03:41:15.530Z,87.20
2022-08-09T03:44:03.341Z,87.30
2022-08-09T03:46:31.348Z,87.40
2022-08-09T03:49:04.015Z,88.40
2022-08-09T03:51:57.222Z,88.90
2022-08-09T03:54:29.560Z,89.00
2022-08-09T03:57:04.397Z,88.70
2022-08-09T03:59:53.230Z,89.00
2022-08-09T04:02:28.733Z,88.80
2022-08-09T04:04:59.199Z,88.80
2022-08-09T04:07:46.974Z,88.90
2022-08-09T04:10:20.307Z,88.70
2022-08-09T04:12:51.491Z,88.80
2022-08-09T04:15:52.043Z,89.20
2022-08-09T04:18:16.513Z,89.50
2022-08-09T04:20:46.979Z,89.50
2022-08-09T04:23:16.831Z,89.90
2022-08-09T04:25:51.777Z,89.90
2022-08-09T04:28:34.027Z,90.00
2022-08-09T04:31:08.406Z,89.90
2022-08-09T04:33:51.930Z,89.60
2022-08-09T04:36:28.332Z,89.70
2022-08-09T04:39:03.102Z,89.70
2022-08-09T04:41:32.153Z,89.90
2022-08-09T04:44:06.995Z,89.60
2022-08-09T04:46:59.647Z,89.50
2022-08-09T04:49:40.363Z,89.50
2022-08-09T04:52:18.557Z,89.30
2022-08-09T04:54:55.864Z,89.20
2022-08-09T04:57:24.195Z,89.30
2022-08-09T04:59:54.601Z,90.00
2022-08-09T05:02:27.097Z,90.10
2022-08-09T05:04:55.313Z,90.00
2022-08-09T05:07:22.815Z,89.90
2022-08-09T05:09:50.317Z,89.90
2022-08-09T05:12:17.472Z,89.90
2022-08-09T05:14:45.418Z,89.90
2022-08-09T05:18:36.680Z,90.00
2022-08-09T05:19:59.436Z,90.20
2022-08-09T05:22:33.198Z,90.20
2022-08-09T05:25:05.333Z,90.40
2022-08-09T05:27:32.267Z,90.30
2022-08-09T05:29:59.176Z,90.40
2022-08-09T05:32:30.032Z,90.30
2022-08-09T05:34:57.204Z,90.20
2022-08-09T05:37:25.229Z,90.30
2022-08-09T05:39:52.497Z,90.30
2022-08-09T05:42:21.225Z,90.20
2022-08-09T05:44:54.108Z,90.30
2022-08-09T05:47:23.182Z,90.20
2022-08-09T05:50:25.629Z,90.00
2022-08-09T05:52:42.014Z,89.80
2022-08-09T05:55:18.108Z,89.50
2022-08-09T05:57:50.927Z,89.40
2022-08-09T06:00:26.972Z,90.00
2022-08-09T06:03:01.748Z,89.00
2022-08-09T06:05:57.591Z,88.80
2022-08-09T06:08:19.362Z,88.80
2022-08-09T06:10:53.390Z,88.80
2022-08-09T06:13:20.981Z,89.10
2022-08-09T06:15:52.867Z,89.00
2022-08-09T06:18:24.841Z,89.00
2022-08-09T06:20:57.759Z,89.10
2022-08-09T06:23:57.519Z,89.00
2022-08-09T06:26:22.102Z,89.10
2022-08-09T06:29:00.004Z,88.80
2022-08-09T06:31:31.207Z,88.60
2022-08-09T06:34:07.332Z,88.70
2022-08-09T06:36:34.483Z,88.70
2022-08-09T06:39:02.674Z,88.60
2022-08-09T06:42:06.375Z,88.70
2022-08-09T06:44:25.408Z,88.40
2022-08-09T06:46:55.410Z,88.40
2022-08-09T06:49:44.875Z,88.30
2022-08-09T06:52:11.946Z,88.20
2022-08-09T06:54:39.214Z,88.10
2022-08-09T06:57:08.602Z,87.90
2022-08-09T07:00:49.453Z,87.30
2022-08-09T07:02:30.880Z,86.70
2022-08-09T07:04:59.822Z,86.10
2022-08-09T07:08:00.767Z,85.30
2022-08-09T07:10:29.385Z,84.80
2022-08-09T07:12:57.655Z,83.80
2022-08-09T07:16:36.393Z,83.30
2022-08-09T07:18:14.285Z,82.90
2022-08-09T07:20:43.808Z,82.90
2022-08-09T07:23:18.719Z,82.70
2022-08-09T07:25:47.139Z,82.30
2022-08-09T07:28:19.005Z,80.30
2022-08-09T07:30:45.985Z,79.40
2022-08-09T07:33:16.659Z,78.80
2022-08-09T07:35:53.907Z,78.70
2022-08-09T07:38:23.289Z,78.60
2022-08-09T07:41:08.150Z,76.70
2022-08-09T07:43:40.970Z,75.90
2022-08-09T07:46:19.330Z,75.70
2022-08-09T07:48:52.745Z,76.00
2022-08-09T07:52:05.844Z,76.80
2022-08-09T07:54:14.109Z,76.60
2022-08-09T07:56:48.756Z,76.60
2022-08-09T07:59:25.723Z,76.30
2022-08-09T08:02:04.976Z,75.10
2022-08-09T08:04:33.206Z,75.40
2022-08-09T08:07:15.319Z,74.90
2022-08-09T08:10:04.784Z,73.60
2022-08-09T08:12:39.976Z,72.60
2022-08-09T08:15:17.846Z,72.30
2022-08-09T08:17:54.663Z,70.60
2022-08-09T08:20:29.574Z,70.50
2022-08-09T08:23:03.719Z,70.60
2022-08-09T08:25:44.406Z,70.70
2022-08-09T08:28:15.194Z,69.90
2022-08-09T08:30:43.910Z,70.10
2022-08-09T08:33:11.912Z,68.60
2022-08-09T08:35:58.500Z,66.60
2022-08-09T08:38:27.910Z,67.40
2022-08-09T08:40:56.637Z,66.80
2022-08-09T08:43:26.456Z,66.70
2022-08-09T08:46:32.711Z,67.40
2022-08-09T08:48:53.680Z,67.60
2022-08-09T08:51:23.054Z,66.60
2022-08-09T08:54:04.062Z,62.70
2022-08-09T08:56:38.183Z,63.10
2022-08-09T08:59:20.192Z,63.60
2022-08-09T09:01:53.077Z,63.60
2022-08-09T09:04:37.815Z,63.70
2022-08-09T09:07:15.799Z,63.20
2022-08-09T09:10:01.897Z,61.70
2022-08-09T09:12:33.973Z,61.30
2022-08-09T09:15:05.728Z,60.60
2022-08-09T09:17:49.293Z,60.70
2022-08-09T09:20:20.634Z,61.10
2022-08-09T09:23:01.895Z,60.70
2022-08-09T09:26:02.034Z,60.20
2022-08-09T09:29:03.030Z,60.50
2022-08-09T09:32:04.048Z,59.30
2022-08-09T09:34:18.195Z,60.30
2022-08-09T09:36:52.759Z,60.90
2022-08-09T09:39:23.610Z,61.50
2022-08-09T09:42:27.743Z,59.90
2022-08-09T09:45:00.369Z,58.30
2022-08-09T09:47:28.819Z,58.70
2022-08-09T09:50:14.987Z,59.40
2022-08-09T09:52:56.522Z,59.50
2022-08-09T09:55:31.310Z,58.20
2022-08-09T09:58:17.376Z,56.70
2022-08-09T10:00:59.167Z,56.00
2022-08-09T10:03:56.289Z,56.40
2022-08-09T10:06:25.175Z,56.60
2022-08-09T10:09:02.822Z,57.10
2022-08-09T10:12:01.412Z,57.60
2022-08-09T10:14:33.058Z,57.40
2022-08-09T10:17:40.177Z,57.60
2022-08-09T10:20:27.617Z,57.30
2022-08-09T10:23:20.064Z,57.50
2022-08-09T10:26:07.415Z,57.80
2022-08-09T10:28:37.404Z,57.50
2022-08-09T10:34:32.299Z,55.40
2022-08-09T10:36:40.012Z,54.10
2022-08-09T10:39:15.780Z,54.40
2022-08-09T10:41:46.251Z,55.30
2022-08-09T10:44:19.371Z,53.90
2022-08-09T10:48:13.144Z,54.10
2022-08-09T10:50:31.143Z,53.80
2022-08-09T10:53:38.044Z,54.00
2022-08-09T10:56:40.533Z,53.40
2022-08-09T10:59:23.217Z,52.80
2022-08-09T11:03:18.328Z,52.80
2022-08-09T11:05:25.461Z,53.90
2022-08-09T11:07:59.478Z,53.70
2022-08-09T11:10:47.296Z,53.80
2022-08-09T11:13:22.074Z,52.70
2022-08-09T11:16:33.598Z,52.50
2022-08-09T11:19:07.966Z,52.80
2022-08-09T11:21:57.115Z,52.20
2022-08-09T11:24:58.024Z,51.50
2022-08-09T11:28:03.972Z,52.10
2022-08-09T11:30:33.606Z,50.70
2022-08-09T11:33:19.118Z,51.20
2022-08-09T11:35:57.481Z,51.50
2022-08-09T11:38:32.275Z,51.90
2022-08-09T11:41:13.170Z,51.00
2022-08-09T11:43:49.363Z,50.70
2022-08-09T11:46:32.894Z,49.60
2022-08-09T11:49:04.910Z,49.40
2022-08-09T11:53:04.097Z,49.20
2022-08-09T11:55:51.593Z,50.20
2022-08-09T11:58:30.460Z,49.50
2022-08-09T12:01:08.765Z,49.40
2022-08-09T12:03:56.768Z,48.30
2022-08-09T12:06:32.876Z,49.40
2022-08-09T12:09:15.283Z,49.20
2022-08-09T12:12:03.239Z,49.30
2022-08-09T12:14:40.676Z,49.00
2022-08-09T12:17:28.088Z,48.00
2022-08-09T12:20:16.685Z,47.60
2022-08-09T12:22:59.833Z,47.50
2022-08-09T12:25:31.847Z,46.30
2022-08-09T12:28:59.036Z,47.40
2022-08-09T12:31:10.720Z,47.60
2022-08-09T12:33:58.528Z,48.90
2022-08-09T12:36:32.257Z,48.10
2022-08-09T12:39:02.293Z,48.90
2022-08-09T12:41:39.093Z,49.80
2022-08-09T12:44:10.031Z,50.00
2022-08-09T12:46:49.011Z,50.20
2022-08-09T12:49:18.341Z,51.00
2022-08-09T12:52:02.655Z,50.50
2022-08-09T12:56:02.339Z,50.00
2022-08-09T12:57:46.176Z,50.10
2022-08-09T13:00:18.601Z,50.70
2022-08-09T13:02:57.807Z,50.70
2022-08-09T13:05:52.476Z,51.60
2022-08-09T13:08:39.766Z,52.40
2022-08-09T13:11:23.018Z,51.70
2022-08-09T13:14:42.486Z,50.80
2022-08-09T13:16:47.654Z,51.10
2022-08-09T13:20:09.772Z,51.00
2022-08-09T13:22:35.530Z,50.60
2022-08-09T13:25:07.627Z,50.60
2022-08-09T13:27:39.870Z,49.50
2022-08-09T13:30:51.591Z,50.30
2022-08-09T13:33:11.700Z,49.40
2022-08-09T13:36:24.723Z,49.30
2022-08-09T13:38:57.238Z,49.70
2022-08-09T13:41:57.881Z,49.20
2022-08-09T13:44:13.800Z,49.10
2022-08-09T13:47:25.234Z,49.50
2022-08-09T13:49:37.784Z,48.20
2022-08-09T13:52:09.160Z,48.60
2022-08-09T13:54:43.065Z,47.90
2022-08-09T13:57:36.934Z,48.30
2022-08-09T14:00:18.621Z,48.00
2022-08-09T14:03:03.939Z,48.00
2022-08-09T14:05:56.461Z,48.20
2022-08-09T14:08:26.851Z,48.70
2022-08-09T14:10:55.570Z,49.50
2022-08-09T14:14:16.418Z,49.30
2022-08-09T14:16:18.663Z,50.50
2022-08-09T14:18:51.698Z,50.00
2022-08-09T14:21:24.388Z,50.10
2022-08-09T14:23:56.709Z,50.70
2022-08-09T14:26:32.089Z,50.10
2022-08-09T14:29:08.103Z,50.60
2022-08-09T14:31:53.444Z,49.90
2022-08-09T14:34:30.726Z,49.00
2022-08-09T14:37:07.494Z,48.30
2022-08-09T14:39:46.915Z,48.60
2022-08-09T14:42:30.275Z,48.90
2022-08-09T14:46:39.805Z,48.90
2022-08-09T14:47:57.995Z,49.10
2022-08-09T14:50:27.356Z,48.70
2022-08-09T14:52:54.518Z,48.60
2022-08-09T14:55:21.680Z,49.00
2022-08-09T14:57:49.322Z,47.90
2022-08-09T15:00:18.058Z,48.10
2022-08-09T15:02:47.795Z,48.60
2022-08-09T15:05:19.718Z,48.60
2022-08-09T15:07:54.843Z,48.10
2022-08-09T15:10:25.578Z,48.40
2022-08-09T15:12:56.851Z,47.30
2022-08-09T15:15:24.774Z,47.20
2022-08-09T15:17:56.289Z,46.60
2022-08-09T15:22:01.049Z,46.60
2022-08-09T15:24:05.656Z,46.40
2022-08-09T15:25:59.210Z,47.90
2022-08-09T15:28:28.526Z,48.00
2022-08-09T15:31:10.132Z,48.20
2022-08-09T15:34:15.543Z,48.30
2022-08-09T15:36:29.098Z,48.40
2022-08-09T15:38:58.899Z,48.40
2022-08-09T15:41:31.574Z,48.90
2022-08-09T15:44:01.762Z,49.00
2022-08-09T15:46:33.525Z,49.10
2022-08-09T15:49:21.860Z,48.90
2022-08-09T15:52:03.214Z,49.10
2022-08-09T15:54:44.745Z,48.90
2022-08-09T15:57:34.274Z,49.10
2022-08-09T16:00:24.381Z,49.00
2022-08-09T16:02:56.538Z,49.30
2022-08-09T16:05:47.606Z,49.50
2022-08-09T16:08:30.028Z,50.30
2022-08-09T16:10:59.747Z,50.60
2022-08-09T16:14:02.753Z,50.70
2022-08-09T16:16:18.323Z,50.60
2022-08-09T16:18:49.848Z,51.00
2022-08-09T16:21:25.582Z,51.10
2022-08-09T16:23:58.766Z,51.00
2022-08-09T16:26:34.484Z,51.10
2022-08-09T16:29:20.679Z,51.00
2022-08-09T16:32:17.828Z,51.50
2022-08-09T16:34:55.064Z,51.40
2022-08-09T16:37:54.572Z,51.00
2022-08-09T16:40:13.030Z,51.00
2022-08-09T16:42:45.369Z,51.00
2022-08-09T16:45:18.625Z,51.20
2022-08-09T16:48:40.590Z,51.40
2022-08-09T16:50:38.527Z,51.10
2022-08-09T16:53:05.928Z,50.80
2022-08-09T16:55:59.842Z,51.30
2022-08-09T16:58:21.139Z,50.60
2022-08-09T17:00:49.532Z,50.30
2022-08-09T17:03:22.192Z,50.10
2022-08-09T17:06:07.036Z,49.90
2022-08-09T17:09:02.754Z,49.40
2022-08-09T17:11:40.812Z,48.90
2022-08-09T17:14:25.821Z,48.90
2022-08-09T17:16:59.954Z,48.60
2022-08-09T17:19:46.886Z,48.30
2022-08-09T17:22:23.675Z,48.40
2022-08-09T17:24:55.369Z,48.30
2022-08-09T17:27:22.932Z,48.20
2022-08-09T17:29:51.441Z,48.00
2022-08-09T17:32:20.303Z,48.80
2022-08-09T17:35:01.415Z,49.20
2022-08-09T17:38:11.467Z,49.50
2022-08-09T17:40:25.928Z,50.30
2022-08-09T17:42:59.548Z,50.40
2022-08-09T17:46:01.885Z,50.70
2022-08-09T17:48:17.524Z,51.10
2022-08-09T17:50:56.433Z,51.70
2022-08-09T17:53:31.924Z,51.70
2022-08-09T17:56:03.282Z,52.20
2022-08-09T17:58:34.579Z,52.40
2022-08-09T18:01:01.660Z,52.90
2022-08-09T18:03:30.491Z,53.30
2022-08-09T18:06:01.025Z,53.50
2022-08-09T18:08:28.879Z,53.60
2022-08-09T18:11:01.600Z,54.10
2022-08-09T18:13:43.094Z,54.00
2022-08-09T18:16:28.918Z,54.50
2022-08-09T18:18:57.144Z,55.00
2022-08-09T18:21:26.188Z,55.40
2022-08-09T18:24:10.591Z,55.80
2022-08-09T18:26:46.375Z,56.30
2022-08-09T18:30:42.195Z,56.60
2022-08-09T18:32:03.083Z,57.10
2022-08-09T18:34:31.648Z,57.50
2022-08-09T18:36:58.875Z,58.20
2022-08-09T18:39:32.598Z,58.70
2022-08-09T18:42:05.368Z,59.10
2022-08-09T18:44:35.898Z,59.90
2022-08-09T18:47:05.156Z,60.40
2022-08-09T18:49:43.227Z,60.50
2022-08-09T18:52:16.077Z,61.40
2022-08-09T18:54:52.635Z,61.10
2022-08-09T18:57:21.871Z,61.10
2022-08-09T18:59:55.382Z,62.00
2022-08-09T19:02:31.993Z,62.50
2022-08-09T19:05:03.667Z,62.80
2022-08-09T19:07:43.292Z,63.40
2022-08-09T19:10:29.579Z,63.40
2022-08-09T19:13:21.953Z,63.40
2022-08-09T19:15:52.441Z,63.50
2022-08-09T19:18:35.767Z,63.70
2022-08-09T19:21:09.171Z,64.10
2022-08-09T19:24:31.882Z,64.90
2022-08-09T19:26:31.548Z,64.40
2022-08-09T19:29:15.117Z,64.60
2022-08-09T19:31:46.525Z,64.70
2022-08-09T19:34:22.780Z,65.10
2022-08-09T19:36:52.415Z,66.60
2022-08-09T19:39:29.057Z,65.90
2022-08-09T19:42:07.355Z,66.70
2022-08-09T19:44:34.299Z,67.10
2022-08-09T19:47:01.859Z,68.30
2022-08-09T19:50:07.640Z,67.50
2022-08-09T19:52:16.363Z,68.50
2022-08-09T19:54:45.263Z,68.30
2022-08-09T19:57:12.523Z,68.10
2022-08-09T20:00:05.670Z,68.40
2022-08-09T20:04:07.524Z,68.40
2022-08-09T20:05:16.622Z,68.90
2022-08-09T20:07:59.671Z,69.20
2022-08-09T20:10:36.225Z,69.10
2022-08-09T20:13:06.561Z,69.90
2022-08-09T20:16:36.942Z,70.10
2022-08-09T20:18:22.783Z,69.50
2022-08-09T20:20:55.579Z,69.80
2022-08-09T20:23:23.669Z,70.00
2022-08-09T20:25:53.455Z,70.20
2022-08-09T20:28:27.997Z,70.80
2022-08-09T20:31:04.962Z,71.40
2022-08-09T20:33:38.895Z,71.40
2022-08-09T20:36:09.359Z,71.80
2022-08-09T20:39:28.913Z,72.20
2022-08-09T20:41:35.198Z,72.70
2022-08-09T20:44:06.857Z,73.50
2022-08-09T20:46:43.324Z,74.10
2022-08-09T20:49:16.005Z,75.60
2022-08-09T20:51:45.410Z,75.10
2022-08-09T20:54:18.021Z,75.50
2022-08-09T20:56:47.136Z,75.80
2022-08-09T20:59:16.709Z,75.90
2022-08-09T21:01:50.482Z,75.40
2022-08-09T21:05:52.141Z,75.20
2022-08-09T21:07:12.767Z,75.20
2022-08-09T21:09:56.351Z,75.80
2022-08-09T21:15:23.631Z,75.80
2022-08-09T21:18:21.119Z,75.80
2022-08-09T21:20:51.772Z,75.90
2022-08-09T21:23:21.219Z,75.70
2022-08-09T21:25:59.373Z,75.60
2022-08-09T21:28:34.303Z,76.00
2022-08-09T21:31:13.509Z,76.00
2022-08-09T21:33:51.505Z,76.40
2022-08-09T21:36:27.922Z,76.10
2022-08-09T21:38:58.634Z,76.40
2022-08-09T21:42:00.193Z,76.60
2022-08-09T21:44:32.724Z,77.10
2022-08-09T21:47:04.721Z,77.10
2022-08-09T21:49:39.589Z,77.30
2022-08-09T21:52:16.669Z,77.10
2022-08-09T21:54:59.383Z,77.30
2022-08-09T21:57:38.324Z,77.60
2022-08-09T22:00:33.349Z,77.10
2022-08-09T22:03:07.480Z,77.50
2022-08-09T22:05:42.386Z,77.40
2022-08-09T22:08:14.583Z,77.00
2022-08-09T22:11:48.991Z,77.30
2022-08-09T22:13:37.221Z,78.00
2022-08-09T22:16:09.057Z,77.50
2022-08-09T22:18:53.041Z,78.30
2022-08-09T22:21:27.454Z,78.40
2022-08-09T22:24:16.647Z,78.10
2022-08-09T22:26:47.818Z,78.90
2022-08-09T22:29:19.449Z,78.30
2022-08-09T22:31:57.049Z,78.50
2022-08-09T22:34:26.441Z,78.90
2022-08-09T22:36:58.463Z,78.90
2022-08-09T22:39:57.097Z,79.00
2022-08-09T22:42:20.752Z,79.40
2022-08-09T22:44:48.887Z,79.70
2022-08-09T22:48:14.691Z,79.80
2022-08-09T22:50:13.784Z,80.00
2022-08-09T22:52:40.706Z,79.90
2022-08-09T22:55:08.594Z,80.20
2022-08-09T22:57:59.973Z,80.40
2022-08-09T23:00:29.292Z,80.20
2022-08-09T23:02:56.785Z,80.10
2022-08-09T23:05:25.585Z,80.30
2022-08-09T23:08:23.047Z,80.40
2022-08-09T23:10:56.354Z,80.70
2022-08-09T23:13:23.411Z,80.60
2022-08-09T23:16:03.378Z,80.50
2022-08-09T23:18:31.124Z,80.80
2022-08-09T23:20:58.043Z,81.50
2022-08-09T23:23:25.044Z,82.00
2022-08-09T23:25:52.029Z,82.60
2022-08-09T23:28:18.919Z,83.00
2022-08-09T23:30:51.276Z,83.40
2022-08-09T23:33:20.833Z,84.10
2022-08-09T23:36:06.020Z,84.80
2022-08-09T23:38:35.952Z,85.20
2022-08-09T23:41:27.968Z,85.60
2022-08-09T23:43:58.551Z,86.10
2022-08-09T23:46:25.723Z,86.30
2022-08-09T23:48:52.655Z,86.10
2022-08-09T23:51:19.581Z,85.80
2022-08-09T23:53:47.442Z,85.70
2022-08-09T23:56:17.594Z,86.40
2022-08-09T23:59:04.919Z,85.80
